createdAt,value
2017-08-20T00:01:00.324Z,101115.41
2017-08-20T00:03:27.743Z,101109.81
2017-08-20T00:05:55.131Z,101115.40
2017-08-20T00:08:22.775Z,101116.26
2017-08-20T00:10:50.196Z,101119.84
2017-08-20T00:13:17.665Z,101121.48
2017-08-20T00:15:45.041Z,101119.95
2017-08-20T00:18:12.650Z,101119.50
2017-08-20T00:20:40.035Z,101113.70
2017-08-20T00:23:07.435Z,101122.60
2017-08-20T00:25:34.827Z,101119.09
2017-08-20T00:28:02.227Z,101121.57
2017-08-20T00:30:29.655Z,101125.77
2017-08-20T00:32:57.038Z,101128.41
2017-08-20T00:35:24.442Z,101129.45
2017-08-20T00:37:51.843Z,101122.11
2017-08-20T00:40:19.470Z,101132.91
2017-08-20T00:42:46.860Z,101128.87
2017-08-20T00:45:14.488Z,101125.84
2017-08-20T00:47:41.874Z,101129.67
2017-08-20T00:50:09.264Z,101129.97
2017-08-20T00:52:36.663Z,101120.20
2017-08-20T00:55:04.069Z,101124.86
2017-08-20T00:57:31.463Z,101126.73
2017-08-20T00:59:58.860Z,101121.50
2017-08-20T01:02:26.283Z,101120.85
2017-08-20T01:04:53.679Z,101124.81
2017-08-20T01:07:21.087Z,101116.57
2017-08-20T01:09:48.487Z,101115.55
2017-08-20T01:12:15.891Z,101115.50
2017-08-20T01:14:46.211Z,101115.62
2017-08-20T01:17:13.595Z,101124.70
2017-08-20T01:19:40.997Z,101116.88
2017-08-20T01:22:08.393Z,101120.73
2017-08-20T01:24:35.787Z,101121.34
2017-08-20T01:27:03.183Z,101115.81
2017-08-20T01:29:30.574Z,101118.67
2017-08-20T01:31:57.991Z,101120.89
2017-08-20T01:34:25.383Z,101119.70
2017-08-20T01:36:52.787Z,101119.62
2017-08-20T01:39:20.188Z,101123.02
2017-08-20T01:41:47.583Z,101121.95
2017-08-20T01:44:14.992Z,101116.11
2017-08-20T01:46:42.375Z,101120.39
2017-08-20T01:49:09.778Z,101122.56
2017-08-20T01:51:37.170Z,101124.48
2017-08-20T01:54:04.566Z,101118.17
2017-08-20T01:56:31.961Z,101117.80
2017-08-20T01:58:59.355Z,101115.43
2017-08-20T02:01:26.753Z,101125.31
2017-08-20T02:03:54.134Z,101121.42
2017-08-20T02:06:21.539Z,101118.17
2017-08-20T02:08:48.935Z,101121.84
2017-08-20T02:11:16.332Z,101123.02
2017-08-20T02:13:43.726Z,101120.08
2017-08-20T02:16:11.146Z,101123.70
2017-08-20T02:18:38.532Z,101118.50
2017-08-20T02:21:05.926Z,101119.62
2017-08-20T02:23:33.318Z,101115.66
2017-08-20T02:26:00.701Z,101128.70
2017-08-20T02:28:28.087Z,101129.86
2017-08-20T02:30:55.495Z,101131.65
2017-08-20T02:33:22.883Z,101131.27
2017-08-20T02:35:50.359Z,101140.05
2017-08-20T02:38:17.730Z,101137.64
2017-08-20T02:40:45.134Z,101136.16
2017-08-20T02:43:12.550Z,101134.41
2017-08-20T02:45:39.946Z,101129.44
2017-08-20T02:48:07.352Z,101131.00
2017-08-20T02:50:34.734Z,101127.52
2017-08-20T02:53:02.136Z,101132.71
2017-08-20T02:55:29.735Z,101138.55
2017-08-20T02:57:57.134Z,101132.03
2017-08-20T03:00:24.535Z,101136.00
2017-08-20T03:02:51.938Z,101138.72
2017-08-20T03:05:19.327Z,101140.66
2017-08-20T03:07:46.735Z,101134.47
2017-08-20T03:10:14.118Z,101138.83
2017-08-20T03:12:41.736Z,101140.14
2017-08-20T03:15:09.127Z,101135.69
2017-08-20T03:17:36.538Z,101144.57
2017-08-20T03:20:03.947Z,101147.52
2017-08-20T03:22:31.349Z,101151.56
2017-08-20T03:24:58.735Z,101153.14
2017-08-20T03:27:26.137Z,101152.44
2017-08-20T03:29:53.532Z,101154.08
2017-08-20T03:32:20.947Z,101154.00
2017-08-20T03:34:48.342Z,101147.25
2017-08-20T03:37:15.730Z,101153.28
2017-08-20T03:39:43.131Z,101149.63
2017-08-20T03:42:29.675Z,101152.49
2017-08-20T03:44:57.064Z,101151.46
2017-08-20T03:47:24.691Z,101158.67
2017-08-20T03:49:52.084Z,101156.77
2017-08-20T03:52:19.703Z,101161.45
2017-08-20T03:54:47.095Z,101157.64
2017-08-20T03:57:14.496Z,101169.31
2017-08-20T03:59:41.895Z,101163.60
2017-08-20T04:02:09.509Z,101164.28
2017-08-20T04:04:36.914Z,101158.56
2017-08-20T04:07:04.316Z,101157.88
2017-08-20T04:09:31.732Z,101166.38
2017-08-20T04:11:59.107Z,101169.78
2017-08-20T04:14:26.516Z,101170.36
2017-08-20T04:16:53.903Z,101174.10
2017-08-20T04:19:21.312Z,101173.85
2017-08-20T04:21:48.714Z,101169.63
2017-08-20T04:24:16.115Z,101169.55
2017-08-20T04:26:43.506Z,101168.34
2017-08-20T04:29:10.908Z,101172.91
2017-08-20T04:31:38.304Z,101173.55
2017-08-20T04:34:05.911Z,101178.45
2017-08-20T04:36:34.082Z,101166.92
2017-08-20T04:39:01.478Z,101168.77
2017-08-20T04:41:28.886Z,101176.72
2017-08-20T04:43:56.492Z,101180.27
2017-08-20T04:46:23.887Z,101183.16
2017-08-20T04:48:51.495Z,101191.12
2017-08-20T04:51:18.907Z,101187.56
2017-08-20T04:53:46.299Z,101192.86
2017-08-20T04:56:13.914Z,101186.93
2017-08-20T04:58:41.316Z,101186.02
2017-08-20T05:01:08.727Z,101189.81
2017-08-20T05:03:36.123Z,101192.06
2017-08-20T05:06:03.526Z,101200.30
2017-08-20T05:08:30.923Z,101196.59
2017-08-20T05:10:58.327Z,101200.75
2017-08-20T05:13:25.727Z,101201.81
2017-08-20T05:15:53.118Z,101203.47
2017-08-20T05:18:20.795Z,101200.20
2017-08-20T05:20:48.455Z,101201.70
2017-08-20T05:23:15.860Z,101200.72
2017-08-20T05:25:43.254Z,101203.28
2017-08-20T05:28:10.927Z,101206.28
2017-08-20T05:30:38.334Z,101211.28
2017-08-20T05:33:05.727Z,101208.30
2017-08-20T05:35:33.130Z,101217.25
2017-08-20T05:38:00.531Z,101220.13
2017-08-20T05:40:27.939Z,101226.63
2017-08-20T05:42:55.338Z,101222.08
2017-08-20T05:45:22.962Z,101221.13
2017-08-20T05:47:50.351Z,101221.75
2017-08-20T05:50:17.980Z,101219.84
2017-08-20T05:52:45.594Z,101223.44
2017-08-20T05:55:12.996Z,101226.92
2017-08-20T05:57:40.398Z,101228.09
2017-08-20T06:00:07.807Z,101228.88
2017-08-20T06:02:35.200Z,101232.98
2017-08-20T06:05:02.602Z,101234.98
2017-08-20T06:07:30.989Z,101233.55
2017-08-20T06:09:58.395Z,101242.84
2017-08-20T06:12:25.792Z,101243.08
2017-08-20T06:14:53.214Z,101241.38
2017-08-20T06:17:21.765Z,101244.23
2017-08-20T06:19:49.249Z,101251.78
2017-08-20T06:22:16.857Z,101242.09
2017-08-20T06:24:44.482Z,101236.17
2017-08-20T06:27:11.879Z,101242.20
2017-08-20T06:29:39.328Z,101232.19
2017-08-20T06:32:06.938Z,101233.23
2017-08-20T06:34:34.550Z,101236.45
2017-08-20T06:37:01.978Z,101239.23
2017-08-20T06:39:29.383Z,101247.76
2017-08-20T06:41:56.794Z,101250.25
2017-08-20T06:44:24.188Z,101250.85
2017-08-20T06:46:51.599Z,101252.91
2017-08-20T06:49:18.991Z,101252.55
2017-08-20T06:51:46.395Z,101248.66
2017-08-20T06:54:13.789Z,101248.55
2017-08-20T06:56:41.197Z,101246.02
2017-08-20T06:59:08.582Z,101256.41
2017-08-20T07:01:35.980Z,101257.14
2017-08-20T07:04:03.365Z,101248.70
2017-08-20T07:06:30.977Z,101246.61
2017-08-20T07:08:58.375Z,101254.75
2017-08-20T07:11:25.772Z,101252.17
2017-08-20T07:13:53.411Z,101254.41
2017-08-20T07:16:21.007Z,101254.11
2017-08-20T07:18:48.414Z,101252.42
2017-08-20T07:21:15.807Z,101259.81
2017-08-20T07:23:43.211Z,101250.03
2017-08-20T07:26:10.618Z,101258.66
2017-08-20T07:28:38.022Z,101256.14
2017-08-20T07:31:05.417Z,101257.06
2017-08-20T07:33:32.902Z,101265.18
2017-08-20T07:36:00.284Z,101267.63
2017-08-20T07:38:27.706Z,101269.01
2017-08-20T07:40:55.095Z,101268.97
2017-08-20T07:43:22.787Z,101274.63
2017-08-20T07:45:50.174Z,101272.21
2017-08-20T07:48:17.583Z,101271.95
2017-08-20T07:50:44.968Z,101270.47
2017-08-20T07:53:12.372Z,101274.14
2017-08-20T07:55:39.762Z,101273.55
2017-08-20T07:58:07.160Z,101276.75
2017-08-20T08:00:35.425Z,101284.09
2017-08-20T08:03:03.132Z,101283.98
2017-08-20T08:05:30.606Z,101278.04
2017-08-20T08:07:58.004Z,101278.16
2017-08-20T08:10:25.779Z,101276.36
2017-08-20T08:12:53.500Z,101281.29
2017-08-20T08:15:20.966Z,101282.56
2017-08-20T08:17:49.343Z,101280.68
2017-08-20T08:20:16.979Z,101278.93
2017-08-20T08:22:45.097Z,101281.49
2017-08-20T08:25:12.591Z,101278.36
2017-08-20T08:27:39.978Z,101284.16
2017-08-20T08:30:07.388Z,101284.34
2017-08-20T08:32:34.779Z,101292.38
2017-08-20T08:35:02.166Z,101291.64
2017-08-20T08:37:29.653Z,101293.55
2017-08-20T08:39:57.054Z,101288.46
2017-08-20T08:42:24.448Z,101287.84
2017-08-20T08:44:51.845Z,101288.33
2017-08-20T08:47:19.226Z,101285.09
2017-08-20T08:49:46.633Z,101291.86
2017-08-20T08:52:14.032Z,101297.77
2017-08-20T08:54:41.430Z,101300.83
2017-08-20T08:57:08.826Z,101298.11
2017-08-20T08:59:36.203Z,101301.30
2017-08-20T09:02:03.598Z,101294.34
2017-08-20T09:04:31.002Z,101300.30
2017-08-20T09:06:58.386Z,101299.24
2017-08-20T09:09:25.781Z,101305.61
2017-08-20T09:11:53.167Z,101298.27
2017-08-20T09:14:20.550Z,101303.67
2017-08-20T09:16:48.191Z,101297.41
2017-08-20T09:19:15.857Z,101307.89
2017-08-20T09:21:43.249Z,101299.05
2017-08-20T09:24:10.645Z,101299.35
2017-08-20T09:26:38.038Z,101295.56
2017-08-20T09:29:05.431Z,101301.44
2017-08-20T09:31:32.831Z,101303.54
2017-08-20T09:34:00.222Z,101303.47
2017-08-20T09:36:27.632Z,101300.23
2017-08-20T09:38:54.998Z,101301.17
2017-08-20T09:41:22.398Z,101306.66
2017-08-20T09:43:49.795Z,101309.72
2017-08-20T09:46:17.204Z,101303.64
2017-08-20T09:48:44.601Z,101310.89
2017-08-20T09:51:11.999Z,101310.12
2017-08-20T09:53:39.403Z,101316.64
2017-08-20T09:56:06.782Z,101313.50
2017-08-20T09:58:34.181Z,101308.37
2017-08-20T10:01:01.797Z,101307.94
2017-08-20T10:03:29.207Z,101309.05
2017-08-20T10:05:56.602Z,101312.86
2017-08-20T10:08:23.991Z,101308.42
2017-08-20T10:10:51.401Z,101305.83
2017-08-20T10:13:18.791Z,101308.65
2017-08-20T10:15:46.182Z,101308.66
2017-08-20T10:18:13.587Z,101306.81
2017-08-20T10:20:41.246Z,101301.32
2017-08-20T10:23:08.644Z,101301.11
2017-08-20T10:25:36.032Z,101304.00
2017-08-20T10:28:03.638Z,101301.58
2017-08-20T10:30:31.248Z,101304.42
2017-08-20T10:32:58.637Z,101300.31
2017-08-20T10:35:26.024Z,101306.81
2017-08-20T10:37:53.434Z,101293.23
2017-08-20T10:40:20.850Z,101299.00
2017-08-20T10:42:48.240Z,101291.76
2017-08-20T10:45:15.635Z,101290.28
2017-08-20T10:47:43.030Z,101295.29
2017-08-20T10:50:10.419Z,101294.37
2017-08-20T10:52:51.028Z,101287.95
2017-08-20T10:55:18.427Z,101288.73
2017-08-20T10:57:46.461Z,101284.45
2017-08-20T11:00:13.933Z,101291.54
2017-08-20T11:02:42.158Z,101289.47
2017-08-20T11:05:09.903Z,101290.84
2017-08-20T11:07:37.321Z,101298.15
2017-08-20T11:10:04.708Z,101289.58
2017-08-20T11:12:33.345Z,101293.48
2017-08-20T11:15:01.487Z,101285.77
2017-08-20T11:17:29.465Z,101297.14
2017-08-20T11:19:56.866Z,101288.12
2017-08-20T11:22:24.263Z,101287.48
2017-08-20T11:24:51.667Z,101295.96
2017-08-20T11:27:19.071Z,101300.39
2017-08-20T11:29:46.677Z,101325.42
2017-08-20T11:32:14.388Z,101331.05
2017-08-20T11:34:41.804Z,101327.73
2017-08-20T11:37:09.202Z,101324.45
2017-08-20T11:39:37.163Z,101334.81
2017-08-20T11:42:04.559Z,101330.78
2017-08-20T11:44:31.946Z,101328.37
2017-08-20T11:46:59.555Z,101328.81
2017-08-20T11:49:26.944Z,101327.02
2017-08-20T11:51:54.336Z,101332.33
2017-08-20T11:54:21.763Z,101330.53
2017-08-20T11:56:49.139Z,101333.20
2017-08-20T11:59:16.818Z,101330.73
2017-08-20T12:01:44.231Z,101340.68
2017-08-20T12:04:11.630Z,101344.00
2017-08-20T12:06:39.022Z,101346.70
2017-08-20T12:09:06.403Z,101347.47
2017-08-20T12:11:33.802Z,101351.66
2017-08-20T12:14:01.460Z,101361.11
2017-08-20T12:16:29.119Z,101347.36
2017-08-20T12:18:56.507Z,101359.06
2017-08-20T12:21:23.923Z,101350.60
2017-08-20T12:23:51.312Z,101353.38
2017-08-20T12:26:18.698Z,101343.25
2017-08-20T12:28:46.109Z,101361.63
2017-08-20T12:31:13.510Z,101385.43
2017-08-20T12:33:40.923Z,101381.88
2017-08-20T12:36:08.570Z,101378.81
2017-08-20T12:38:35.974Z,101375.73
2017-08-20T12:41:03.384Z,101371.64
2017-08-20T12:43:30.778Z,101369.02
2017-08-20T12:45:58.499Z,101366.88
2017-08-20T12:48:25.891Z,101367.97
2017-08-20T12:50:53.274Z,101360.19
2017-08-20T12:53:20.674Z,101354.03
2017-08-20T12:55:48.071Z,101354.80
2017-08-20T12:58:15.476Z,101347.14
2017-08-20T13:00:42.861Z,101344.91
2017-08-20T13:03:10.467Z,101337.78
2017-08-20T13:05:38.147Z,101338.99
2017-08-20T13:08:05.542Z,101332.19
2017-08-20T13:10:33.137Z,101320.67
2017-08-20T13:13:00.530Z,101331.61
2017-08-20T13:15:27.914Z,101330.48
2017-08-20T13:17:55.314Z,101333.23
2017-08-20T13:20:22.702Z,101342.70
2017-08-20T13:22:50.092Z,101337.64
2017-08-20T13:25:17.492Z,101335.88
2017-08-20T13:27:45.158Z,101335.67
2017-08-20T13:30:12.556Z,101359.01
2017-08-20T13:32:39.943Z,101371.22
2017-08-20T13:35:07.352Z,101386.97
2017-08-20T13:37:34.730Z,101382.28
2017-08-20T13:40:02.445Z,101381.88
2017-08-20T13:42:30.107Z,101376.82
2017-08-20T13:44:57.762Z,101385.92
2017-08-20T13:47:25.151Z,101377.81
2017-08-20T13:49:52.634Z,101373.42
2017-08-20T13:52:20.018Z,101379.36
2017-08-20T13:54:47.411Z,101382.52
2017-08-20T13:57:14.804Z,101373.73
2017-08-20T13:59:42.507Z,101371.63
2017-08-20T14:02:09.896Z,101371.06
2017-08-20T14:04:37.282Z,101373.20
2017-08-20T14:07:06.744Z,101382.30
2017-08-20T14:09:34.143Z,101388.48
2017-08-20T14:12:01.533Z,101391.89
2017-08-20T14:14:28.920Z,101398.36
2017-08-20T14:16:56.311Z,101401.52
2017-08-20T14:19:23.709Z,101417.33
2017-08-20T14:21:51.088Z,101414.27
2017-08-20T14:24:18.487Z,101408.94
2017-08-20T14:26:46.178Z,101411.91
2017-08-20T14:29:13.556Z,101414.78
2017-08-20T14:31:40.960Z,101420.25
2017-08-20T14:34:08.343Z,101421.59
2017-08-20T14:36:35.734Z,101431.13
2017-08-20T14:39:03.122Z,101439.94
2017-08-20T14:41:30.512Z,101433.05
2017-08-20T14:43:57.900Z,101427.03
2017-08-20T14:46:25.299Z,101434.08
2017-08-20T14:48:52.973Z,101426.23
2017-08-20T14:51:20.363Z,101427.68
2017-08-20T14:53:47.745Z,101427.89
2017-08-20T14:56:15.150Z,101426.48
2017-08-20T14:58:42.547Z,101425.36
2017-08-20T15:01:09.943Z,101429.54
2017-08-20T15:03:37.327Z,101427.52
2017-08-20T15:06:04.710Z,101429.72
2017-08-20T15:08:32.109Z,101432.91
2017-08-20T15:10:59.491Z,101426.17
2017-08-20T15:13:26.917Z,101429.34
2017-08-20T15:15:54.299Z,101423.50
2017-08-20T15:18:21.937Z,101424.20
2017-08-20T15:20:49.327Z,101426.19
2017-08-20T15:23:16.727Z,101428.63
2017-08-20T15:25:44.111Z,101423.70
2017-08-20T15:28:11.503Z,101418.03
2017-08-20T15:30:38.908Z,101413.84
2017-08-20T15:33:06.295Z,101415.06
2017-08-20T15:35:33.687Z,101415.43
2017-08-20T15:38:01.079Z,101415.34
2017-08-20T15:40:28.478Z,101410.97
2017-08-20T15:42:55.862Z,101425.43
2017-08-20T15:45:23.555Z,101420.91
2017-08-20T15:47:50.939Z,101421.77
2017-08-20T15:50:18.571Z,101421.22
2017-08-20T15:52:45.958Z,101423.83
2017-08-20T15:55:13.354Z,101416.77
2017-08-20T15:57:40.735Z,101413.61
2017-08-20T16:00:08.131Z,101415.12
2017-08-20T16:02:35.515Z,101418.04
2017-08-20T16:05:02.911Z,101415.33
2017-08-20T16:07:30.294Z,101422.08
2017-08-20T16:09:57.695Z,101427.84
2017-08-20T16:12:25.078Z,101428.75
2017-08-20T16:14:52.479Z,101432.86
2017-08-20T16:17:19.871Z,101431.84
2017-08-20T16:19:47.272Z,101426.43
2017-08-20T16:22:15.638Z,101419.81
2017-08-20T16:24:43.033Z,101415.32
2017-08-20T16:27:10.418Z,101422.84
2017-08-20T16:29:37.849Z,101415.88
2017-08-20T16:32:05.235Z,101416.41
2017-08-20T16:34:32.626Z,101426.39
2017-08-20T16:37:00.018Z,101420.42
2017-08-20T16:39:27.402Z,101429.73
2017-08-20T16:41:54.794Z,101425.34
2017-08-20T16:44:22.174Z,101426.19
2017-08-20T16:46:49.873Z,101415.64
2017-08-20T16:49:17.535Z,101410.91
2017-08-20T16:51:44.926Z,101399.47
2017-08-20T16:54:12.315Z,101405.86
2017-08-20T16:56:39.716Z,101415.34
2017-08-20T16:59:07.358Z,101414.65
2017-08-20T17:01:34.758Z,101414.62
2017-08-20T17:04:02.143Z,101413.06
2017-08-20T17:06:29.541Z,101408.09
2017-08-20T17:08:56.931Z,101398.57
2017-08-20T17:11:24.643Z,101400.64
2017-08-20T17:13:52.035Z,101394.62
2017-08-20T17:16:19.422Z,101398.63
2017-08-20T17:18:46.820Z,101404.23
2017-08-20T17:21:14.471Z,101413.10
2017-08-20T17:23:41.862Z,101408.93
2017-08-20T17:26:09.256Z,101412.08
2017-08-20T17:28:36.647Z,101417.84
2017-08-20T17:31:04.038Z,101414.52
2017-08-20T17:33:31.439Z,101422.73
2017-08-20T17:35:58.827Z,101417.86
2017-08-20T17:38:26.212Z,101427.59
2017-08-20T17:40:53.614Z,101424.94
2017-08-20T17:43:20.994Z,101422.75
2017-08-20T17:45:48.425Z,101423.52
2017-08-20T17:48:15.824Z,101421.77
2017-08-20T17:50:43.204Z,101430.88
2017-08-20T17:53:10.605Z,101430.31
2017-08-20T17:55:37.983Z,101431.97
2017-08-20T17:58:05.608Z,101431.11
2017-08-20T18:00:33.000Z,101429.42
2017-08-20T18:03:00.387Z,101429.66
2017-08-20T18:05:27.842Z,101433.72
2017-08-20T18:07:55.265Z,101429.13
2017-08-20T18:10:22.713Z,101431.84
2017-08-20T18:12:50.085Z,101427.52
2017-08-20T18:15:17.562Z,101429.95
2017-08-20T18:17:44.956Z,101425.66
2017-08-20T18:20:12.418Z,101432.52
2017-08-20T18:22:40.041Z,101438.93
2017-08-20T18:25:07.434Z,101442.39
2017-08-20T18:27:34.827Z,101449.09
2017-08-20T18:30:02.222Z,101445.70
2017-08-20T18:32:29.626Z,101453.84
2017-08-20T18:34:57.031Z,101449.70
2017-08-20T18:37:24.443Z,101444.55
2017-08-20T18:39:51.836Z,101450.55
2017-08-20T18:42:19.230Z,101456.67
2017-08-20T18:44:46.625Z,101455.17
2017-08-20T18:47:14.015Z,101453.86
2017-08-20T18:49:41.414Z,101459.15
2017-08-20T18:52:08.803Z,101462.84
2017-08-20T18:54:36.202Z,101471.05
2017-08-20T18:57:03.598Z,101464.55
2017-08-20T18:59:30.997Z,101473.41
2017-08-20T19:01:58.391Z,101469.39
2017-08-20T19:04:25.784Z,101480.16
2017-08-20T19:06:53.162Z,101485.15
2017-08-20T19:09:20.823Z,101491.83
2017-08-20T19:11:48.213Z,101497.06
2017-08-20T19:14:15.599Z,101492.31
2017-08-20T19:16:42.989Z,101493.35
2017-08-20T19:19:10.390Z,101496.41
2017-08-20T19:21:37.784Z,101490.57
2017-08-20T19:24:05.172Z,101489.48
2017-08-20T19:26:32.556Z,101495.80
2017-08-20T19:28:59.958Z,101505.62
2017-08-20T19:31:27.349Z,101506.66
2017-08-20T19:33:54.763Z,101512.22
2017-08-20T19:36:22.158Z,101513.09
2017-08-20T19:38:49.538Z,101512.44
2017-08-20T19:41:17.247Z,101523.23
2017-08-20T19:43:44.644Z,101519.30
2017-08-20T19:46:12.042Z,101512.23
2017-08-20T19:48:39.645Z,101506.12
2017-08-20T19:51:07.035Z,101513.85
2017-08-20T19:53:34.419Z,101520.59
2017-08-20T19:56:01.811Z,101514.83
2017-08-20T19:58:29.199Z,101518.63
2017-08-20T20:00:56.595Z,101528.09
2017-08-20T20:03:24.011Z,101516.20
2017-08-20T20:05:51.396Z,101524.22
2017-08-20T20:08:18.782Z,101524.25
2017-08-20T20:10:46.171Z,101530.50
2017-08-20T20:13:13.879Z,101523.66
2017-08-20T20:15:41.269Z,101528.77
2017-08-20T20:18:08.674Z,101528.45
2017-08-20T20:20:36.096Z,101523.23
2017-08-20T20:23:03.495Z,101529.02
2017-08-20T20:25:30.874Z,101524.33
2017-08-20T20:27:58.276Z,101525.79
2017-08-20T20:30:25.655Z,101525.33
2017-08-20T20:32:53.072Z,101516.75
2017-08-20T20:35:20.454Z,101514.16
2017-08-20T20:37:47.851Z,101509.81
2017-08-20T20:40:15.503Z,101515.08
2017-08-20T20:42:42.884Z,101509.16
2017-08-20T20:45:10.267Z,101513.98
2017-08-20T20:47:37.667Z,101507.79
2017-08-20T20:50:05.063Z,101505.90
2017-08-20T20:52:32.443Z,101510.25
2017-08-20T20:55:28.562Z,101508.28
2017-08-20T20:57:56.261Z,101501.39
2017-08-20T21:00:23.675Z,101504.04
2017-08-20T21:02:51.079Z,101499.19
2017-08-20T21:05:18.463Z,101507.06
2017-08-20T21:07:45.856Z,101509.77
2017-08-20T21:10:13.273Z,101505.13
2017-08-20T21:12:40.647Z,101502.00
2017-08-20T21:15:08.047Z,101507.06
2017-08-20T21:17:35.431Z,101503.69
2017-08-20T21:20:02.892Z,101504.61
2017-08-20T21:22:30.520Z,101515.28
2017-08-20T21:24:57.914Z,101515.73
2017-08-20T21:27:25.307Z,101515.00
2017-08-20T21:29:52.701Z,101515.74
2017-08-20T21:32:20.600Z,101510.72
2017-08-20T21:34:48.042Z,101511.64
2017-08-20T21:37:15.411Z,101514.98
2017-08-20T21:39:42.812Z,101512.20
2017-08-20T21:42:10.218Z,101515.78
2017-08-20T21:44:37.610Z,101514.31
2017-08-20T21:47:05.218Z,101513.85
2017-08-20T21:49:32.614Z,101516.62
2017-08-20T21:51:59.999Z,101516.88
2017-08-20T21:54:27.397Z,101521.41
2017-08-20T21:56:54.791Z,101514.31
2017-08-20T21:59:22.275Z,101518.45
2017-08-20T22:01:49.675Z,101512.38
2017-08-20T22:04:17.057Z,101508.33
2017-08-20T22:06:44.446Z,101505.55
2017-08-20T22:09:11.839Z,101508.22
2017-08-20T22:11:39.231Z,101505.59
2017-08-20T22:14:06.617Z,101502.48
2017-08-20T22:16:34.018Z,101505.34
2017-08-20T22:19:01.395Z,101503.16
2017-08-20T22:21:28.786Z,101499.47
2017-08-20T22:23:56.432Z,101503.09
2017-08-20T22:26:23.818Z,101506.33
2017-08-20T22:28:51.213Z,101506.85
2017-08-20T22:31:18.595Z,101501.33
2017-08-20T22:33:45.987Z,101510.02
2017-08-20T22:36:14.137Z,101506.67
2017-08-20T22:38:41.913Z,101508.01
2017-08-20T22:41:09.355Z,101509.31
2017-08-20T22:43:36.759Z,101508.72
2017-08-20T22:46:04.454Z,101510.80
2017-08-20T22:48:31.847Z,101500.28
2017-08-20T22:50:59.247Z,101500.80
2017-08-20T22:53:26.933Z,101497.99
2017-08-20T22:55:54.314Z,101492.33
2017-08-20T22:58:21.947Z,101495.98
2017-08-20T23:00:49.608Z,101492.19
2017-08-20T23:03:17.008Z,101487.30
2017-08-20T23:05:44.395Z,101484.00
2017-08-20T23:08:12.080Z,101489.91
2017-08-20T23:10:39.486Z,101491.49
2017-08-20T23:13:06.879Z,101493.07
2017-08-20T23:15:34.274Z,101490.86
2017-08-20T23:18:01.671Z,101496.80
2017-08-20T23:20:29.059Z,101489.62
2017-08-20T23:22:56.466Z,101489.70
2017-08-20T23:25:23.850Z,101490.69
2017-08-20T23:27:51.242Z,101496.31
2017-08-20T23:30:18.643Z,101488.44
2017-08-20T23:32:46.022Z,101494.62
2017-08-20T23:35:13.428Z,101494.62
2017-08-20T23:37:40.814Z,101491.77
2017-08-20T23:40:08.503Z,101489.27
2017-08-20T23:42:36.166Z,101487.52
2017-08-20T23:45:03.833Z,101493.27
2017-08-20T23:47:31.223Z,101489.55
2017-08-20T23:49:58.943Z,101489.48
2017-08-20T23:52:26.338Z,101489.30
2017-08-20T23:54:53.730Z,101491.66
2017-08-20T23:57:21.135Z,101491.89
2017-08-20T23:59:48.530Z,101493.16
